KDIJ

Driggs-Reed Memorial Airport

Driggs, Idaho, USA
METAR KDIJ 181256Z AUTO 02008KT 9SM OVC005 M02/M03 A2996 RMK AO2 SNE54 SLP169 P0001 T10221028
Observed Flight Rules
Jan-18 @ 12:56 UTC (53 minutes ago) Instrument Flight Rules
Wind Visibility Clouds
20° at 8 knots 9 miles
  • Overcast at 500' AGL
Temperatures Readings Precipitation
Current -2°C / 28°F
Dewpoint -3°C / 27°F
Humidity 93%
Altimeter 29.96" Hg
Pressure 1016.9 hPa
Elevation 1899
Current Rain 0.01
METAR KDIJ 181256Z AUTO 02008KT 9SM OVC005 M02/M03 A2996 RMK AO2 SNE54 SLP169 P0001 T10221028
Observed Flight Rules
Jan-18 @ 12:56 UTC
(53 minutes ago)
IFR
Wind Visibility
20° at 8 knots 9 miles
Clouds
  • Overcast at 500' AGL
Temperature Dewpoint
-2°C / 28°F -3°C / 27°F
Humidity Altimeter Pressure
93% 29.96" Hg 1016.9 hPa
Current Rain
0.01